sensor_id;sensor_type;location;lat;lon;timestamp;P1;durP1;ratioP1;P2;durP2;ratioP2
59336;SDS011;45115;52.002;4.686;2024-02-23T00:02:14;9.45;;;2.45;;
59336;SDS011;45115;52.002;4.686;2024-02-23T00:04:41;6.32;;;2.13;;
59336;SDS011;45115;52.002;4.686;2024-02-23T00:07:08;8.40;;;1.90;;
59336;SDS011;45115;52.002;4.686;2024-02-23T00:09:35;7.78;;;2.42;;
59336;SDS011;45115;52.002;4.686;2024-02-23T00:12:02;8.88;;;1.85;;
59336;SDS011;45115;52.002;4.686;2024-02-23T00:14:29;11.27;;;1.90;;
59336;SDS011;45115;52.002;4.686;2024-02-23T00:16:56;9.65;;;2.55;;
59336;SDS011;45115;52.002;4.686;2024-02-23T00:19:25;5.85;;;2.50;;
59336;SDS011;45115;52.002;4.686;2024-02-23T00:21:52;7.90;;;2.42;;
59336;SDS011;45115;52.002;4.686;2024-02-23T00:24:19;9.10;;;1.63;;
59336;SDS011;45115;52.002;4.686;2024-02-23T00:26:47;5.95;;;1.98;;
59336;SDS011;45115;52.002;4.686;2024-02-23T00:29:14;5.55;;;2.10;;
59336;SDS011;45115;52.002;4.686;2024-02-23T00:31:41;7.18;;;2.13;;
59336;SDS011;45115;52.002;4.686;2024-02-23T00:34:10;6.72;;;2.17;;
59336;SDS011;45115;52.002;4.686;2024-02-23T00:36:40;5.20;;;1.48;;
59336;SDS011;45115;52.002;4.686;2024-02-23T00:39:09;10.15;;;2.42;;
59336;SDS011;45115;52.002;4.686;2024-02-23T00:41:36;6.10;;;2.00;;
59336;SDS011;45115;52.002;4.686;2024-02-23T00:44:03;3.70;;;1.63;;
59336;SDS011;45115;52.002;4.686;2024-02-23T00:46:35;9.25;;;2.33;;
59336;SDS011;45115;52.002;4.686;2024-02-23T00:49:07;6.57;;;1.98;;
59336;SDS011;45115;52.002;4.686;2024-02-23T00:51:34;4.57;;;2.05;;
59336;SDS011;45115;52.002;4.686;2024-02-23T00:54:02;9.43;;;1.98;;
59336;SDS011;45115;52.002;4.686;2024-02-23T00:56:29;9.25;;;2.20;;
59336;SDS011;45115;52.002;4.686;2024-02-23T00:58:56;5.85;;;1.60;;
59336;SDS011;45115;52.002;4.686;2024-02-23T01:01:23;8.13;;;2.08;;
59336;SDS011;45115;52.002;4.686;2024-02-23T01:03:52;8.63;;;1.80;;
59336;SDS011;45115;52.002;4.686;2024-02-23T01:06:18;6.30;;;1.73;;
59336;SDS011;45115;52.002;4.686;2024-02-23T01:08:48;4.47;;;1.80;;
59336;SDS011;45115;52.002;4.686;2024-02-23T01:11:17;3.45;;;1.55;;
59336;SDS011;45115;52.002;4.686;2024-02-23T01:13:44;4.97;;;2.22;;
59336;SDS011;45115;52.002;4.686;2024-02-23T01:16:10;14.15;;;2.90;;
59336;SDS011;45115;52.002;4.686;2024-02-23T01:18:37;5.07;;;2.08;;
59336;SDS011;45115;52.002;4.686;2024-02-23T01:21:04;3.90;;;1.55;;
59336;SDS011;45115;52.002;4.686;2024-02-23T01:23:31;5.90;;;1.60;;
59336;SDS011;45115;52.002;4.686;2024-02-23T01:25:58;6.53;;;1.92;;
59336;SDS011;45115;52.002;4.686;2024-02-23T01:28:26;8.65;;;2.17;;
59336;SDS011;45115;52.002;4.686;2024-02-23T01:30:53;7.00;;;2.10;;
59336;SDS011;45115;52.002;4.686;2024-02-23T01:33:20;9.73;;;2.05;;
59336;SDS011;45115;52.002;4.686;2024-02-23T01:35:47;10.85;;;2.05;;
59336;SDS011;45115;52.002;4.686;2024-02-23T01:38:13;4.43;;;2.25;;
59336;SDS011;45115;52.002;4.686;2024-02-23T01:40:45;4.97;;;1.52;;
59336;SDS011;45115;52.002;4.686;2024-02-23T01:43:12;7.38;;;2.20;;
59336;SDS011;45115;52.002;4.686;2024-02-23T01:45:41;3.45;;;1.80;;
59336;SDS011;45115;52.002;4.686;2024-02-23T01:48:08;7.97;;;2.17;;
59336;SDS011;45115;52.002;4.686;2024-02-23T01:50:35;2.75;;;1.42;;
59336;SDS011;45115;52.002;4.686;2024-02-23T01:53:02;15.32;;;2.08;;
59336;SDS011;45115;52.002;4.686;2024-02-23T01:55:30;7.70;;;1.95;;
59336;SDS011;45115;52.002;4.686;2024-02-23T01:57:58;6.63;;;2.15;;
59336;SDS011;45115;52.002;4.686;2024-02-23T02:00:25;9.43;;;2.17;;
59336;SDS011;45115;52.002;4.686;2024-02-23T02:02:55;5.95;;;1.65;;
59336;SDS011;45115;52.002;4.686;2024-02-23T02:05:23;6.55;;;1.85;;
59336;SDS011;45115;52.002;4.686;2024-02-23T02:07:51;6.38;;;1.98;;
59336;SDS011;45115;52.002;4.686;2024-02-23T02:10:24;6.80;;;1.92;;
59336;SDS011;45115;52.002;4.686;2024-02-23T02:12:51;9.57;;;2.03;;
59336;SDS011;45115;52.002;4.686;2024-02-23T02:15:18;6.10;;;2.05;;
59336;SDS011;45115;52.002;4.686;2024-02-23T02:17:46;4.47;;;1.67;;
59336;SDS011;45115;52.002;4.686;2024-02-23T02:20:15;8.98;;;3.45;;
59336;SDS011;45115;52.002;4.686;2024-02-23T02:25:13;4.68;;;1.60;;
59336;SDS011;45115;52.002;4.686;2024-02-23T02:27:40;7.57;;;1.95;;
59336;SDS011;45115;52.002;4.686;2024-02-23T02:30:07;6.88;;;1.60;;
59336;SDS011;45115;52.002;4.686;2024-02-23T02:32:35;6.78;;;1.45;;
59336;SDS011;45115;52.002;4.686;2024-02-23T02:35:02;8.23;;;1.60;;
59336;SDS011;45115;52.002;4.686;2024-02-23T02:37:31;5.30;;;2.53;;
59336;SDS011;45115;52.002;4.686;2024-02-23T02:39:58;6.40;;;1.80;;
59336;SDS011;45115;52.002;4.686;2024-02-23T02:42:25;3.85;;;1.73;;
59336;SDS011;45115;52.002;4.686;2024-02-23T02:44:54;8.68;;;1.88;;
59336;SDS011;45115;52.002;4.686;2024-02-23T02:47:20;11.50;;;1.77;;
59336;SDS011;45115;52.002;4.686;2024-02-23T02:49:48;4.88;;;1.52;;
59336;SDS011;45115;52.002;4.686;2024-02-23T02:52:14;7.97;;;1.98;;
59336;SDS011;45115;52.002;4.686;2024-02-23T02:54:43;8.40;;;1.95;;
59336;SDS011;45115;52.002;4.686;2024-02-23T02:57:09;7.35;;;1.98;;
59336;SDS011;45115;52.002;4.686;2024-02-23T02:59:36;4.80;;;2.03;;
59336;SDS011;45115;52.002;4.686;2024-02-23T03:02:03;6.40;;;2.00;;
59336;SDS011;45115;52.002;4.686;2024-02-23T03:04:30;6.85;;;1.63;;
59336;SDS011;45115;52.002;4.686;2024-02-23T03:06:57;4.70;;;1.60;;
59336;SDS011;45115;52.002;4.686;2024-02-23T03:09:24;7.72;;;2.03;;
59336;SDS011;45115;52.002;4.686;2024-02-23T03:11:52;1.73;;;1.27;;
59336;SDS011;45115;52.002;4.686;2024-02-23T03:14:19;3.25;;;2.05;;
59336;SDS011;45115;52.002;4.686;2024-02-23T03:16:46;5.07;;;1.90;;
59336;SDS011;45115;52.002;4.686;2024-02-23T03:19:14;5.50;;;1.73;;
59336;SDS011;45115;52.002;4.686;2024-02-23T03:21:41;8.88;;;2.20;;
59336;SDS011;45115;52.002;4.686;2024-02-23T03:24:08;9.93;;;2.13;;
59336;SDS011;45115;52.002;4.686;2024-02-23T03:26:34;6.18;;;2.00;;
59336;SDS011;45115;52.002;4.686;2024-02-23T03:29:03;4.25;;;1.70;;
59336;SDS011;45115;52.002;4.686;2024-02-23T03:31:30;8.35;;;2.75;;
59336;SDS011;45115;52.002;4.686;2024-02-23T03:33:57;3.58;;;1.40;;
59336;SDS011;45115;52.002;4.686;2024-02-23T03:36:24;5.32;;;2.00;;
59336;SDS011;45115;52.002;4.686;2024-02-23T03:38:51;13.48;;;2.40;;
59336;SDS011;45115;52.002;4.686;2024-02-23T03:41:18;8.32;;;1.85;;
59336;SDS011;45115;52.002;4.686;2024-02-23T03:43:45;4.03;;;1.88;;
59336;SDS011;45115;52.002;4.686;2024-02-23T03:46:13;7.68;;;2.03;;
59336;SDS011;45115;52.002;4.686;2024-02-23T03:48:40;6.18;;;1.80;;
59336;SDS011;45115;52.002;4.686;2024-02-23T03:51:08;4.50;;;1.90;;
59336;SDS011;45115;52.002;4.686;2024-02-23T03:53:35;6.70;;;2.58;;
59336;SDS011;45115;52.002;4.686;2024-02-23T03:56:02;11.05;;;2.30;;
59336;SDS011;45115;52.002;4.686;2024-02-23T03:58:29;10.40;;;2.47;;
59336;SDS011;45115;52.002;4.686;2024-02-23T04:00:55;3.70;;;1.70;;
59336;SDS011;45115;52.002;4.686;2024-02-23T04:03:24;5.75;;;2.10;;
59336;SDS011;45115;52.002;4.686;2024-02-23T04:05:50;6.03;;;2.20;;
59336;SDS011;45115;52.002;4.686;2024-02-23T04:08:17;7.03;;;2.53;;
59336;SDS011;45115;52.002;4.686;2024-02-23T04:10:44;4.47;;;1.95;;
59336;SDS011;45115;52.002;4.686;2024-02-23T04:13:11;6.85;;;2.13;;
59336;SDS011;45115;52.002;4.686;2024-02-23T04:15:38;8.05;;;2.60;;
59336;SDS011;45115;52.002;4.686;2024-02-23T04:18:05;6.85;;;2.58;;
59336;SDS011;45115;52.002;4.686;2024-02-23T04:20:33;13.40;;;2.30;;
59336;SDS011;45115;52.002;4.686;2024-02-23T04:23:00;5.72;;;2.25;;
59336;SDS011;45115;52.002;4.686;2024-02-23T04:25:27;6.70;;;2.47;;
59336;SDS011;45115;52.002;4.686;2024-02-23T04:27:54;5.72;;;2.17;;
59336;SDS011;45115;52.002;4.686;2024-02-23T04:30:21;6.45;;;2.30;;
59336;SDS011;45115;52.002;4.686;2024-02-23T04:32:47;6.93;;;2.10;;
59336;SDS011;45115;52.002;4.686;2024-02-23T04:35:14;9.68;;;2.33;;
59336;SDS011;45115;52.002;4.686;2024-02-23T04:37:44;10.95;;;3.08;;
59336;SDS011;45115;52.002;4.686;2024-02-23T04:40:11;3.47;;;1.80;;
59336;SDS011;45115;52.002;4.686;2024-02-23T04:42:38;6.20;;;1.75;;
59336;SDS011;45115;52.002;4.686;2024-02-23T04:45:05;9.95;;;2.58;;
59336;SDS011;45115;52.002;4.686;2024-02-23T04:47:32;7.38;;;2.97;;
59336;SDS011;45115;52.002;4.686;2024-02-23T04:49:59;5.63;;;2.10;;
59336;SDS011;45115;52.002;4.686;2024-02-23T04:52:28;9.07;;;2.60;;
59336;SDS011;45115;52.002;4.686;2024-02-23T04:54:56;6.63;;;1.85;;
59336;SDS011;45115;52.002;4.686;2024-02-23T04:57:22;9.57;;;2.63;;
59336;SDS011;45115;52.002;4.686;2024-02-23T04:59:49;5.35;;;1.88;;
59336;SDS011;45115;52.002;4.686;2024-02-23T05:02:16;6.47;;;2.30;;
59336;SDS011;45115;52.002;4.686;2024-02-23T05:04:43;4.35;;;1.77;;
59336;SDS011;45115;52.002;4.686;2024-02-23T05:07:09;5.78;;;1.90;;
59336;SDS011;45115;52.002;4.686;2024-02-23T05:09:36;6.28;;;2.20;;
59336;SDS011;45115;52.002;4.686;2024-02-23T05:12:05;6.50;;;2.72;;
59336;SDS011;45115;52.002;4.686;2024-02-23T05:14:33;8.93;;;3.22;;
59336;SDS011;45115;52.002;4.686;2024-02-23T05:17:00;7.82;;;3.42;;
59336;SDS011;45115;52.002;4.686;2024-02-23T05:19:28;4.28;;;3.03;;
59336;SDS011;45115;52.002;4.686;2024-02-23T05:21:55;5.30;;;3.30;;
59336;SDS011;45115;52.002;4.686;2024-02-23T05:24:22;7.47;;;3.30;;
59336;SDS011;45115;52.002;4.686;2024-02-23T05:26:49;7.40;;;3.35;;
59336;SDS011;45115;52.002;4.686;2024-02-23T05:29:17;5.63;;;3.20;;
59336;SDS011;45115;52.002;4.686;2024-02-23T05:34:14;10.07;;;3.35;;
59336;SDS011;45115;52.002;4.686;2024-02-23T05:36:41;6.30;;;3.10;;
59336;SDS011;45115;52.002;4.686;2024-02-23T05:39:08;6.53;;;2.78;;
59336;SDS011;45115;52.002;4.686;2024-02-23T05:41:35;6.13;;;2.83;;
59336;SDS011;45115;52.002;4.686;2024-02-23T05:44:03;6.30;;;2.60;;
59336;SDS011;45115;52.002;4.686;2024-02-23T05:46:32;4.95;;;3.38;;
59336;SDS011;45115;52.002;4.686;2024-02-23T05:48:59;8.93;;;3.67;;
59336;SDS011;45115;52.002;4.686;2024-02-23T05:51:27;5.38;;;2.85;;
59336;SDS011;45115;52.002;4.686;2024-02-23T05:53:55;5.32;;;2.38;;
59336;SDS011;45115;52.002;4.686;2024-02-23T05:56:22;6.15;;;2.83;;
59336;SDS011;45115;52.002;4.686;2024-02-23T05:58:50;4.45;;;2.78;;
59336;SDS011;45115;52.002;4.686;2024-02-23T06:01:17;9.95;;;2.55;;
59336;SDS011;45115;52.002;4.686;2024-02-23T06:03:45;6.55;;;2.38;;
59336;SDS011;45115;52.002;4.686;2024-02-23T06:06:12;4.57;;;2.30;;
59336;SDS011;45115;52.002;4.686;2024-02-23T06:08:39;7.03;;;2.60;;
59336;SDS011;45115;52.002;4.686;2024-02-23T06:11:06;5.38;;;2.65;;
59336;SDS011;45115;52.002;4.686;2024-02-23T06:13:32;8.05;;;2.72;;
59336;SDS011;45115;52.002;4.686;2024-02-23T06:15:59;4.53;;;2.50;;
59336;SDS011;45115;52.002;4.686;2024-02-23T06:18:26;5.15;;;2.35;;
59336;SDS011;45115;52.002;4.686;2024-02-23T06:20:55;7.80;;;2.65;;
59336;SDS011;45115;52.002;4.686;2024-02-23T06:23:21;8.27;;;2.75;;
59336;SDS011;45115;52.002;4.686;2024-02-23T06:25:48;11.95;;;4.22;;
59336;SDS011;45115;52.002;4.686;2024-02-23T06:28:15;8.15;;;2.67;;
59336;SDS011;45115;52.002;4.686;2024-02-23T06:30:42;8.10;;;3.08;;
59336;SDS011;45115;52.002;4.686;2024-02-23T06:33:08;10.15;;;3.17;;
59336;SDS011;45115;52.002;4.686;2024-02-23T06:35:35;7.97;;;3.08;;
59336;SDS011;45115;52.002;4.686;2024-02-23T06:38:04;4.57;;;3.00;;
59336;SDS011;45115;52.002;4.686;2024-02-23T06:40:32;6.55;;;3.47;;
59336;SDS011;45115;52.002;4.686;2024-02-23T06:42:59;9.27;;;3.45;;
59336;SDS011;45115;52.002;4.686;2024-02-23T06:45:26;9.45;;;3.38;;
59336;SDS011;45115;52.002;4.686;2024-02-23T06:47:53;7.93;;;3.38;;
59336;SDS011;45115;52.002;4.686;2024-02-23T06:50:20;11.48;;;3.17;;
59336;SDS011;45115;52.002;4.686;2024-02-23T06:52:47;8.20;;;3.40;;
59336;SDS011;45115;52.002;4.686;2024-02-23T06:55:16;10.95;;;3.50;;
59336;SDS011;45115;52.002;4.686;2024-02-23T06:57:43;8.23;;;3.70;;
59336;SDS011;45115;52.002;4.686;2024-02-23T07:00:10;5.60;;;2.78;;
59336;SDS011;45115;52.002;4.686;2024-02-23T07:02:38;6.70;;;2.83;;
59336;SDS011;45115;52.002;4.686;2024-02-23T07:05:05;5.80;;;2.80;;
59336;SDS011;45115;52.002;4.686;2024-02-23T07:07:32;6.38;;;2.78;;
59336;SDS011;45115;52.002;4.686;2024-02-23T07:09:59;7.03;;;2.50;;
59336;SDS011;45115;52.002;4.686;2024-02-23T07:12:27;7.43;;;2.67;;
59336;SDS011;45115;52.002;4.686;2024-02-23T07:14:54;8.82;;;3.63;;
59336;SDS011;45115;52.002;4.686;2024-02-23T07:17:21;7.55;;;2.55;;
59336;SDS011;45115;52.002;4.686;2024-02-23T07:19:48;5.18;;;2.33;;
59336;SDS011;45115;52.002;4.686;2024-02-23T07:22:16;5.05;;;2.60;;
59336;SDS011;45115;52.002;4.686;2024-02-23T07:24:44;8.00;;;2.63;;
59336;SDS011;45115;52.002;4.686;2024-02-23T07:27:11;8.68;;;2.60;;
59336;SDS011;45115;52.002;4.686;2024-02-23T07:29:39;7.93;;;2.72;;
59336;SDS011;45115;52.002;4.686;2024-02-23T07:32:06;4.07;;;2.42;;
59336;SDS011;45115;52.002;4.686;2024-02-23T07:34:32;10.98;;;2.80;;
59336;SDS011;45115;52.002;4.686;2024-02-23T07:36:59;5.15;;;2.72;;
59336;SDS011;45115;52.002;4.686;2024-02-23T07:39:26;5.03;;;2.20;;
59336;SDS011;45115;52.002;4.686;2024-02-23T07:41:53;9.25;;;2.92;;
59336;SDS011;45115;52.002;4.686;2024-02-23T07:44:20;4.47;;;2.30;;
59336;SDS011;45115;52.002;4.686;2024-02-23T07:46:48;9.75;;;2.88;;
59336;SDS011;45115;52.002;4.686;2024-02-23T07:49:17;11.10;;;3.10;;
59336;SDS011;45115;52.002;4.686;2024-02-23T07:51:44;7.55;;;2.65;;
59336;SDS011;45115;52.002;4.686;2024-02-23T07:54:11;5.60;;;2.33;;
59336;SDS011;45115;52.002;4.686;2024-02-23T07:56:37;7.40;;;2.97;;
59336;SDS011;45115;52.002;4.686;2024-02-23T07:59:04;6.15;;;2.50;;
59336;SDS011;45115;52.002;4.686;2024-02-23T08:01:31;6.20;;;2.28;;
59336;SDS011;45115;52.002;4.686;2024-02-23T08:03:59;8.18;;;2.85;;
59336;SDS011;45115;52.002;4.686;2024-02-23T08:06:26;13.27;;;3.05;;
59336;SDS011;45115;52.002;4.686;2024-02-23T08:08:53;5.32;;;2.85;;
59336;SDS011;45115;52.002;4.686;2024-02-23T08:11:20;8.35;;;3.42;;
59336;SDS011;45115;52.002;4.686;2024-02-23T08:13:47;6.75;;;2.88;;
59336;SDS011;45115;52.002;4.686;2024-02-23T08:16:15;9.45;;;4.03;;
59336;SDS011;45115;52.002;4.686;2024-02-23T08:18:42;6.85;;;3.30;;
59336;SDS011;45115;52.002;4.686;2024-02-23T08:21:11;8.52;;;3.25;;
59336;SDS011;45115;52.002;4.686;2024-02-23T08:23:38;8.05;;;3.55;;
59336;SDS011;45115;52.002;4.686;2024-02-23T08:26:05;7.68;;;2.75;;
59336;SDS011;45115;52.002;4.686;2024-02-23T08:28:32;5.88;;;2.90;;
59336;SDS011;45115;52.002;4.686;2024-02-23T08:30:59;5.07;;;2.58;;
59336;SDS011;45115;52.002;4.686;2024-02-23T08:33:26;6.53;;;2.70;;
59336;SDS011;45115;52.002;4.686;2024-02-23T08:35:53;12.95;;;3.20;;
59336;SDS011;45115;52.002;4.686;2024-02-23T08:38:21;6.43;;;3.20;;
59336;SDS011;45115;52.002;4.686;2024-02-23T08:40:48;7.45;;;2.70;;
59336;SDS011;45115;52.002;4.686;2024-02-23T08:43:15;9.18;;;3.08;;
59336;SDS011;45115;52.002;4.686;2024-02-23T08:45:42;7.00;;;2.97;;
59336;SDS011;45115;52.002;4.686;2024-02-23T08:48:09;5.30;;;2.70;;
59336;SDS011;45115;52.002;4.686;2024-02-23T08:50:40;8.10;;;3.10;;
59336;SDS011;45115;52.002;4.686;2024-02-23T08:53:07;6.05;;;2.58;;
59336;SDS011;45115;52.002;4.686;2024-02-23T08:55:35;7.00;;;2.70;;
59336;SDS011;45115;52.002;4.686;2024-02-23T08:58:01;8.10;;;3.05;;
59336;SDS011;45115;52.002;4.686;2024-02-23T09:00:28;6.15;;;2.67;;
59336;SDS011;45115;52.002;4.686;2024-02-23T09:02:55;13.25;;;3.20;;
59336;SDS011;45115;52.002;4.686;2024-02-23T09:05:21;8.90;;;3.17;;
59336;SDS011;45115;52.002;4.686;2024-02-23T09:07:48;7.10;;;2.70;;
59336;SDS011;45115;52.002;4.686;2024-02-23T09:10:15;7.15;;;2.70;;
59336;SDS011;45115;52.002;4.686;2024-02-23T09:12:44;3.50;;;2.17;;
59336;SDS011;45115;52.002;4.686;2024-02-23T09:15:11;12.52;;;4.65;;
59336;SDS011;45115;52.002;4.686;2024-02-23T09:17:39;5.80;;;2.53;;
59336;SDS011;45115;52.002;4.686;2024-02-23T09:20:06;7.32;;;3.65;;
59336;SDS011;45115;52.002;4.686;2024-02-23T09:22:33;5.85;;;2.67;;
59336;SDS011;45115;52.002;4.686;2024-02-23T09:25:00;7.18;;;2.85;;
59336;SDS011;45115;52.002;4.686;2024-02-23T09:27:28;6.40;;;2.75;;
59336;SDS011;45115;52.002;4.686;2024-02-23T09:29:56;4.35;;;2.38;;
59336;SDS011;45115;52.002;4.686;2024-02-23T09:32:23;5.50;;;2.45;;
59336;SDS011;45115;52.002;4.686;2024-02-23T09:34:50;6.38;;;2.50;;
59336;SDS011;45115;52.002;4.686;2024-02-23T09:37:16;8.50;;;2.28;;
59336;SDS011;45115;52.002;4.686;2024-02-23T09:39:43;8.25;;;2.88;;
59336;SDS011;45115;52.002;4.686;2024-02-23T09:42:10;6.53;;;2.47;;
59336;SDS011;45115;52.002;4.686;2024-02-23T09:44:37;3.33;;;2.20;;
59336;SDS011;45115;52.002;4.686;2024-02-23T09:47:05;4.60;;;2.25;;
59336;SDS011;45115;52.002;4.686;2024-02-23T09:49:36;6.72;;;2.65;;
59336;SDS011;45115;52.002;4.686;2024-02-23T09:52:05;7.13;;;2.50;;
59336;SDS011;45115;52.002;4.686;2024-02-23T09:54:34;9.80;;;2.63;;
59336;SDS011;45115;52.002;4.686;2024-02-23T09:57:00;7.32;;;2.78;;
59336;SDS011;45115;52.002;4.686;2024-02-23T09:59:31;5.90;;;2.25;;
59336;SDS011;45115;52.002;4.686;2024-02-23T10:01:59;6.10;;;2.72;;
59336;SDS011;45115;52.002;4.686;2024-02-23T10:04:27;7.95;;;3.13;;
59336;SDS011;45115;52.002;4.686;2024-02-23T10:06:54;5.85;;;2.47;;
59336;SDS011;45115;52.002;4.686;2024-02-23T10:09:22;8.60;;;3.20;;
59336;SDS011;45115;52.002;4.686;2024-02-23T10:11:51;9.45;;;3.40;;
59336;SDS011;45115;52.002;4.686;2024-02-23T10:14:18;6.55;;;3.00;;
59336;SDS011;45115;52.002;4.686;2024-02-23T10:16:46;9.30;;;3.10;;
59336;SDS011;45115;52.002;4.686;2024-02-23T10:19:12;5.68;;;2.50;;
59336;SDS011;45115;52.002;4.686;2024-02-23T10:21:40;9.88;;;2.95;;
59336;SDS011;45115;52.002;4.686;2024-02-23T10:24:07;4.93;;;3.20;;
59336;SDS011;45115;52.002;4.686;2024-02-23T10:26:34;8.30;;;3.25;;
59336;SDS011;45115;52.002;4.686;2024-02-23T10:29:00;6.35;;;3.20;;
59336;SDS011;45115;52.002;4.686;2024-02-23T10:31:28;7.85;;;2.80;;
59336;SDS011;45115;52.002;4.686;2024-02-23T10:34:00;4.63;;;2.88;;
59336;SDS011;45115;52.002;4.686;2024-02-23T10:36:34;8.02;;;3.25;;
59336;SDS011;45115;52.002;4.686;2024-02-23T10:39:08;7.32;;;3.47;;
59336;SDS011;45115;52.002;4.686;2024-02-23T10:41:35;7.57;;;3.42;;
59336;SDS011;45115;52.002;4.686;2024-02-23T10:44:03;7.63;;;3.50;;
59336;SDS011;45115;52.002;4.686;2024-02-23T10:46:30;7.07;;;2.85;;
59336;SDS011;45115;52.002;4.686;2024-02-23T10:48:58;7.85;;;3.13;;
59336;SDS011;45115;52.002;4.686;2024-02-23T10:51:25;5.88;;;2.70;;
59336;SDS011;45115;52.002;4.686;2024-02-23T10:53:52;5.68;;;2.38;;
59336;SDS011;45115;52.002;4.686;2024-02-23T10:56:21;8.05;;;2.75;;
59336;SDS011;45115;52.002;4.686;2024-02-23T10:58:49;3.78;;;2.33;;
59336;SDS011;45115;52.002;4.686;2024-02-23T11:01:16;4.18;;;2.60;;
59336;SDS011;45115;52.002;4.686;2024-02-23T11:03:45;6.40;;;2.75;;
59336;SDS011;45115;52.002;4.686;2024-02-23T11:06:15;5.93;;;2.20;;
59336;SDS011;45115;52.002;4.686;2024-02-23T11:08:46;3.83;;;2.28;;
59336;SDS011;45115;52.002;4.686;2024-02-23T11:11:15;6.65;;;2.38;;
59336;SDS011;45115;52.002;4.686;2024-02-23T11:13:44;3.78;;;1.95;;
59336;SDS011;45115;52.002;4.686;2024-02-23T11:16:20;3.72;;;2.45;;
59336;SDS011;45115;52.002;4.686;2024-02-23T11:18:48;2.85;;;1.75;;
59336;SDS011;45115;52.002;4.686;2024-02-23T11:21:15;6.07;;;1.95;;
59336;SDS011;45115;52.002;4.686;2024-02-23T11:23:42;4.45;;;1.92;;
59336;SDS011;45115;52.002;4.686;2024-02-23T11:26:09;3.10;;;2.30;;
59336;SDS011;45115;52.002;4.686;2024-02-23T11:28:46;7.38;;;1.95;;
59336;SDS011;45115;52.002;4.686;2024-02-23T11:31:14;4.07;;;2.10;;
59336;SDS011;45115;52.002;4.686;2024-02-23T11:33:47;8.02;;;1.88;;
59336;SDS011;45115;52.002;4.686;2024-02-23T11:36:21;4.72;;;1.75;;
59336;SDS011;45115;52.002;4.686;2024-02-23T11:38:48;4.50;;;1.60;;
59336;SDS011;45115;52.002;4.686;2024-02-23T11:41:18;7.35;;;2.30;;
59336;SDS011;45115;52.002;4.686;2024-02-23T11:43:48;2.20;;;1.60;;
59336;SDS011;45115;52.002;4.686;2024-02-23T11:46:15;3.00;;;1.70;;
59336;SDS011;45115;52.002;4.686;2024-02-23T11:48:45;2.40;;;1.35;;
59336;SDS011;45115;52.002;4.686;2024-02-23T11:51:18;10.32;;;1.90;;
59336;SDS011;45115;52.002;4.686;2024-02-23T11:53:46;2.72;;;1.70;;
59336;SDS011;45115;52.002;4.686;2024-02-23T11:56:13;4.70;;;2.10;;
59336;SDS011;45115;52.002;4.686;2024-02-23T11:58:40;3.83;;;1.98;;
59336;SDS011;45115;52.002;4.686;2024-02-23T12:01:08;6.55;;;2.70;;
59336;SDS011;45115;52.002;4.686;2024-02-23T12:03:35;4.93;;;1.90;;
59336;SDS011;45115;52.002;4.686;2024-02-23T12:06:04;3.03;;;1.88;;
59336;SDS011;45115;52.002;4.686;2024-02-23T12:08:31;6.03;;;1.70;;
59336;SDS011;45115;52.002;4.686;2024-02-23T12:11:03;6.53;;;2.15;;
59336;SDS011;45115;52.002;4.686;2024-02-23T12:13:30;4.40;;;2.17;;
59336;SDS011;45115;52.002;4.686;2024-02-23T12:15:56;3.05;;;1.88;;
59336;SDS011;45115;52.002;4.686;2024-02-23T12:18:25;6.00;;;2.05;;
59336;SDS011;45115;52.002;4.686;2024-02-23T12:20:52;5.38;;;2.08;;
59336;SDS011;45115;52.002;4.686;2024-02-23T12:23:19;6.97;;;2.78;;
59336;SDS011;45115;52.002;4.686;2024-02-23T12:25:52;4.03;;;1.98;;
59336;SDS011;45115;52.002;4.686;2024-02-23T12:28:20;8.35;;;2.10;;
59336;SDS011;45115;52.002;4.686;2024-02-23T12:30:57;3.42;;;2.50;;
59336;SDS011;45115;52.002;4.686;2024-02-23T12:33:27;6.53;;;2.10;;
59336;SDS011;45115;52.002;4.686;2024-02-23T12:35:55;4.70;;;1.90;;
59336;SDS011;45115;52.002;4.686;2024-02-23T12:38:22;3.58;;;1.75;;
59336;SDS011;45115;52.002;4.686;2024-02-23T12:40:49;4.15;;;2.00;;
59336;SDS011;45115;52.002;4.686;2024-02-23T12:43:15;4.45;;;1.88;;
59336;SDS011;45115;52.002;4.686;2024-02-23T12:45:42;4.25;;;2.17;;
59336;SDS011;45115;52.002;4.686;2024-02-23T12:48:14;3.75;;;1.60;;
59336;SDS011;45115;52.002;4.686;2024-02-23T12:50:42;3.20;;;2.00;;
59336;SDS011;45115;52.002;4.686;2024-02-23T12:53:09;4.78;;;1.80;;
59336;SDS011;45115;52.002;4.686;2024-02-23T12:55:38;3.58;;;1.67;;
59336;SDS011;45115;52.002;4.686;2024-02-23T12:58:04;5.85;;;2.25;;
59336;SDS011;45115;52.002;4.686;2024-02-23T13:00:31;3.33;;;2.03;;
59336;SDS011;45115;52.002;4.686;2024-02-23T13:02:58;6.15;;;1.73;;
59336;SDS011;45115;52.002;4.686;2024-02-23T13:05:24;3.47;;;1.88;;
59336;SDS011;45115;52.002;4.686;2024-02-23T13:07:53;6.53;;;1.92;;
59336;SDS011;45115;52.002;4.686;2024-02-23T13:10:19;2.97;;;2.00;;
59336;SDS011;45115;52.002;4.686;2024-02-23T13:12:46;3.75;;;2.42;;
59336;SDS011;45115;52.002;4.686;2024-02-23T13:15:13;5.10;;;2.45;;
59336;SDS011;45115;52.002;4.686;2024-02-23T13:17:40;4.65;;;2.28;;
59336;SDS011;45115;52.002;4.686;2024-02-23T13:20:07;4.70;;;1.92;;
59336;SDS011;45115;52.002;4.686;2024-02-23T13:22:37;3.40;;;1.40;;
59336;SDS011;45115;52.002;4.686;2024-02-23T13:25:06;3.42;;;1.30;;
59336;SDS011;45115;52.002;4.686;2024-02-23T13:27:33;1.60;;;1.50;;
59336;SDS011;45115;52.002;4.686;2024-02-23T13:29:59;2.63;;;1.40;;
59336;SDS011;45115;52.002;4.686;2024-02-23T13:32:26;2.58;;;1.40;;
59336;SDS011;45115;52.002;4.686;2024-02-23T13:34:53;1.13;;;1.02;;
59336;SDS011;45115;52.002;4.686;2024-02-23T13:37:19;1.20;;;1.10;;
59336;SDS011;45115;52.002;4.686;2024-02-23T13:39:46;4.75;;;1.25;;
59336;SDS011;45115;52.002;4.686;2024-02-23T13:42:15;2.22;;;0.90;;
59336;SDS011;45115;52.002;4.686;2024-02-23T13:44:41;2.45;;;1.08;;
59336;SDS011;45115;52.002;4.686;2024-02-23T13:47:08;2.65;;;0.88;;
59336;SDS011;45115;52.002;4.686;2024-02-23T13:49:38;1.23;;;1.17;;
59336;SDS011;45115;52.002;4.686;2024-02-23T13:52:05;0.98;;;0.90;;
59336;SDS011;45115;52.002;4.686;2024-02-23T13:54:31;1.48;;;1.00;;
59336;SDS011;45115;52.002;4.686;2024-02-23T13:56:58;2.28;;;0.85;;
59336;SDS011;45115;52.002;4.686;2024-02-23T13:59:26;1.25;;;0.73;;
59336;SDS011;45115;52.002;4.686;2024-02-23T14:01:53;0.82;;;0.82;;
59336;SDS011;45115;52.002;4.686;2024-02-23T14:04:19;1.90;;;0.88;;
59336;SDS011;45115;52.002;4.686;2024-02-23T14:06:46;1.08;;;0.77;;
59336;SDS011;45115;52.002;4.686;2024-02-23T14:09:13;3.85;;;1.00;;
59336;SDS011;45115;52.002;4.686;2024-02-23T14:11:46;2.03;;;1.20;;
59336;SDS011;45115;52.002;4.686;2024-02-23T14:14:14;3.03;;;1.23;;
59336;SDS011;45115;52.002;4.686;2024-02-23T14:16:43;1.42;;;1.35;;
59336;SDS011;45115;52.002;4.686;2024-02-23T14:19:09;1.58;;;1.00;;
59336;SDS011;45115;52.002;4.686;2024-02-23T14:21:36;2.25;;;1.10;;
59336;SDS011;45115;52.002;4.686;2024-02-23T14:24:03;1.58;;;1.30;;
59336;SDS011;45115;52.002;4.686;2024-02-23T14:26:30;1.77;;;1.60;;
59336;SDS011;45115;52.002;4.686;2024-02-23T14:28:57;1.55;;;1.45;;
59336;SDS011;45115;52.002;4.686;2024-02-23T14:31:23;3.60;;;1.52;;
59336;SDS011;45115;52.002;4.686;2024-02-23T14:33:52;3.70;;;1.60;;
59336;SDS011;45115;52.002;4.686;2024-02-23T14:36:18;2.00;;;1.80;;
59336;SDS011;45115;52.002;4.686;2024-02-23T14:38:45;1.20;;;1.10;;
59336;SDS011;45115;52.002;4.686;2024-02-23T14:41:12;2.58;;;1.35;;
59336;SDS011;45115;52.002;4.686;2024-02-23T14:43:39;1.00;;;0.90;;
59336;SDS011;45115;52.002;4.686;2024-02-23T14:46:06;3.13;;;1.30;;
59336;SDS011;45115;52.002;4.686;2024-02-23T14:48:36;1.52;;;1.15;;
59336;SDS011;45115;52.002;4.686;2024-02-23T14:51:07;3.85;;;1.60;;
59336;SDS011;45115;52.002;4.686;2024-02-23T14:53:35;2.45;;;1.30;;
59336;SDS011;45115;52.002;4.686;2024-02-23T14:56:02;2.15;;;1.40;;